sensor_id;sensor_type;location;lat;lon;timestamp;P1;durP1;ratioP1;P2;durP2;ratioP2
2019;SDS011;1014;51.960;8.542;2022-07-18T00:00:04;23.17;;;21.90;;
2019;SDS011;1014;51.960;8.542;2022-07-18T00:02:32;22.40;;;21.20;;
2019;SDS011;1014;51.960;8.542;2022-07-18T00:04:59;22.63;;;21.43;;
2019;SDS011;1014;51.960;8.542;2022-07-18T00:07:27;22.80;;;21.60;;
2019;SDS011;1014;51.960;8.542;2022-07-18T00:09:55;23.20;;;21.80;;
2019;SDS011;1014;51.960;8.542;2022-07-18T00:12:23;23.00;;;21.70;;
2019;SDS011;1014;51.960;8.542;2022-07-18T00:14:50;23.13;;;21.57;;
2019;SDS011;1014;51.960;8.542;2022-07-18T00:17:17;22.87;;;21.47;;
2019;SDS011;1014;51.960;8.542;2022-07-18T00:19:45;23.47;;;22.17;;
2019;SDS011;1014;51.960;8.542;2022-07-18T00:22:12;22.60;;;21.40;;
2019;SDS011;1014;51.960;8.542;2022-07-18T00:24:39;22.50;;;21.30;;
2019;SDS011;1014;51.960;8.542;2022-07-18T00:27:08;23.77;;;22.27;;
2019;SDS011;1014;51.960;8.542;2022-07-18T00:29:36;23.00;;;21.70;;
2019;SDS011;1014;51.960;8.542;2022-07-18T00:32:04;22.97;;;21.67;;
2019;SDS011;1014;51.960;8.542;2022-07-18T00:34:32;23.27;;;21.73;;
2019;SDS011;1014;51.960;8.542;2022-07-18T00:36:59;22.87;;;21.67;;
2019;SDS011;1014;51.960;8.542;2022-07-18T00:39:27;22.23;;;20.83;;
2019;SDS011;1014;51.960;8.542;2022-07-18T00:41:54;21.77;;;20.53;;
2019;SDS011;1014;51.960;8.542;2022-07-18T00:44:23;22.33;;;21.13;;
2019;SDS011;1014;51.960;8.542;2022-07-18T00:46:51;22.37;;;21.03;;
2019;SDS011;1014;51.960;8.542;2022-07-18T00:49:19;22.47;;;21.27;;
2019;SDS011;1014;51.960;8.542;2022-07-18T00:51:46;22.30;;;21.10;;
2019;SDS011;1014;51.960;8.542;2022-07-18T00:54:14;22.53;;;21.33;;
2019;SDS011;1014;51.960;8.542;2022-07-18T00:56:42;22.70;;;21.50;;
2019;SDS011;1014;51.960;8.542;2022-07-18T00:59:09;23.20;;;21.90;;
2019;SDS011;1014;51.960;8.542;2022-07-18T01:01:38;22.13;;;20.93;;
2019;SDS011;1014;51.960;8.542;2022-07-18T01:04:08;23.20;;;21.90;;
2019;SDS011;1014;51.960;8.542;2022-07-18T01:06:36;22.93;;;21.57;;
2019;SDS011;1014;51.960;8.542;2022-07-18T01:09:03;22.27;;;20.93;;
2019;SDS011;1014;51.960;8.542;2022-07-18T01:11:31;23.00;;;21.80;;
2019;SDS011;1014;51.960;8.542;2022-07-18T01:13:58;22.90;;;21.60;;
2019;SDS011;1014;51.960;8.542;2022-07-18T01:16:27;22.93;;;21.53;;
2019;SDS011;1014;51.960;8.542;2022-07-18T01:18:56;22.73;;;21.43;;
2019;SDS011;1014;51.960;8.542;2022-07-18T01:21:25;22.40;;;21.20;;
2019;SDS011;1014;51.960;8.542;2022-07-18T01:23:52;22.00;;;20.80;;
2019;SDS011;1014;51.960;8.542;2022-07-18T01:26:20;22.60;;;21.20;;
2019;SDS011;1014;51.960;8.542;2022-07-18T01:28:47;22.77;;;21.00;;
2019;SDS011;1014;51.960;8.542;2022-07-18T01:31:14;22.83;;;21.53;;
2019;SDS011;1014;51.960;8.542;2022-07-18T01:33:42;22.90;;;21.60;;
2019;SDS011;1014;51.960;8.542;2022-07-18T01:36:09;23.77;;;22.27;;
2019;SDS011;1014;51.960;8.542;2022-07-18T01:38:38;22.30;;;21.00;;
2019;SDS011;1014;51.960;8.542;2022-07-18T01:41:05;21.70;;;20.50;;
2019;SDS011;1014;51.960;8.542;2022-07-18T01:43:32;22.70;;;21.30;;
2019;SDS011;1014;51.960;8.542;2022-07-18T01:46:03;22.47;;;20.93;;
2019;SDS011;1014;51.960;8.542;2022-07-18T01:48:30;22.23;;;21.03;;
2019;SDS011;1014;51.960;8.542;2022-07-18T01:50:58;22.70;;;21.40;;
2019;SDS011;1014;51.960;8.542;2022-07-18T01:53:25;22.23;;;20.93;;
2019;SDS011;1014;51.960;8.542;2022-07-18T01:55:54;21.47;;;20.33;;
2019;SDS011;1014;51.960;8.542;2022-07-18T01:58:21;22.47;;;21.27;;
2019;SDS011;1014;51.960;8.542;2022-07-18T02:00:49;22.53;;;21.20;;
2019;SDS011;1014;51.960;8.542;2022-07-18T02:03:16;22.20;;;21.00;;
2019;SDS011;1014;51.960;8.542;2022-07-18T02:05:43;22.40;;;20.97;;
2019;SDS011;1014;51.960;8.542;2022-07-18T02:08:10;21.77;;;20.47;;
2019;SDS011;1014;51.960;8.542;2022-07-18T02:10:38;22.23;;;21.00;;
2019;SDS011;1014;51.960;8.542;2022-07-18T02:13:06;21.63;;;20.53;;
2019;SDS011;1014;51.960;8.542;2022-07-18T02:15:34;23.10;;;21.80;;
2019;SDS011;1014;51.960;8.542;2022-07-18T02:18:01;23.27;;;21.77;;
2019;SDS011;1014;51.960;8.542;2022-07-18T02:20:28;22.70;;;21.40;;
2019;SDS011;1014;51.960;8.542;2022-07-18T02:22:56;22.50;;;21.30;;
2019;SDS011;1014;51.960;8.542;2022-07-18T02:25:23;21.43;;;20.23;;
2019;SDS011;1014;51.960;8.542;2022-07-18T02:27:51;21.90;;;20.70;;
2019;SDS011;1014;51.960;8.542;2022-07-18T02:30:19;21.70;;;20.40;;
2019;SDS011;1014;51.960;8.542;2022-07-18T02:32:48;21.53;;;20.43;;
2019;SDS011;1014;51.960;8.542;2022-07-18T02:35:15;22.73;;;21.40;;
2019;SDS011;1014;51.960;8.542;2022-07-18T02:37:42;21.50;;;20.33;;
2019;SDS011;1014;51.960;8.542;2022-07-18T02:40:10;21.73;;;20.43;;
2019;SDS011;1014;51.960;8.542;2022-07-18T02:42:38;21.00;;;19.90;;
2019;SDS011;1014;51.960;8.542;2022-07-18T02:45:06;22.03;;;20.83;;
2019;SDS011;1014;51.960;8.542;2022-07-18T02:47:35;21.97;;;20.73;;
2019;SDS011;1014;51.960;8.542;2022-07-18T02:50:02;22.13;;;20.83;;
2019;SDS011;1014;51.960;8.542;2022-07-18T02:52:30;21.57;;;20.27;;
2019;SDS011;1014;51.960;8.542;2022-07-18T02:54:57;21.93;;;20.43;;
2019;SDS011;1014;51.960;8.542;2022-07-18T02:57:26;21.60;;;20.40;;
2019;SDS011;1014;51.960;8.542;2022-07-18T02:59:53;21.87;;;20.67;;
2019;SDS011;1014;51.960;8.542;2022-07-18T03:02:21;21.43;;;20.27;;
2019;SDS011;1014;51.960;8.542;2022-07-18T03:04:49;22.37;;;21.07;;
2019;SDS011;1014;51.960;8.542;2022-07-18T03:07:17;21.80;;;20.60;;
2019;SDS011;1014;51.960;8.542;2022-07-18T03:09:44;22.17;;;20.97;;
2019;SDS011;1014;51.960;8.542;2022-07-18T03:12:11;21.90;;;20.60;;
2019;SDS011;1014;51.960;8.542;2022-07-18T03:14:38;21.50;;;20.30;;
2019;SDS011;1014;51.960;8.542;2022-07-18T03:17:06;22.30;;;21.10;;
2019;SDS011;1014;51.960;8.542;2022-07-18T03:19:33;21.27;;;20.10;;
2019;SDS011;1014;51.960;8.542;2022-07-18T03:22:02;21.93;;;20.67;;
2019;SDS011;1014;51.960;8.542;2022-07-18T03:24:30;22.37;;;20.97;;
2019;SDS011;1014;51.960;8.542;2022-07-18T03:26:57;22.57;;;21.27;;
2019;SDS011;1014;51.960;8.542;2022-07-18T03:29:24;21.77;;;20.43;;
2019;SDS011;1014;51.960;8.542;2022-07-18T03:31:52;22.80;;;21.50;;
2019;SDS011;1014;51.960;8.542;2022-07-18T03:34:19;22.17;;;20.87;;
2019;SDS011;1014;51.960;8.542;2022-07-18T03:36:46;22.80;;;21.30;;
2019;SDS011;1014;51.960;8.542;2022-07-18T03:39:15;21.70;;;20.40;;
2019;SDS011;1014;51.960;8.542;2022-07-18T03:41:42;22.43;;;21.03;;
2019;SDS011;1014;51.960;8.542;2022-07-18T03:44:10;22.57;;;21.10;;
2019;SDS011;1014;51.960;8.542;2022-07-18T03:46:37;21.37;;;20.07;;
2019;SDS011;1014;51.960;8.542;2022-07-18T03:49:04;22.07;;;20.87;;
2019;SDS011;1014;51.960;8.542;2022-07-18T03:51:32;21.30;;;20.10;;
2019;SDS011;1014;51.960;8.542;2022-07-18T03:53:59;22.20;;;20.73;;
2019;SDS011;1014;51.960;8.542;2022-07-18T03:56:28;22.53;;;21.10;;
2019;SDS011;1014;51.960;8.542;2022-07-18T03:58:55;23.00;;;21.60;;
2019;SDS011;1014;51.960;8.542;2022-07-18T04:01:22;22.00;;;20.80;;
2019;SDS011;1014;51.960;8.542;2022-07-18T04:03:49;22.00;;;20.70;;
2019;SDS011;1014;51.960;8.542;2022-07-18T04:06:17;22.60;;;21.10;;
2019;SDS011;1014;51.960;8.542;2022-07-18T04:08:44;22.80;;;21.40;;
2019;SDS011;1014;51.960;8.542;2022-07-18T04:11:12;21.00;;;19.80;;
2019;SDS011;1014;51.960;8.542;2022-07-18T04:13:40;22.10;;;20.70;;
2019;SDS011;1014;51.960;8.542;2022-07-18T04:16:08;22.90;;;21.10;;
2019;SDS011;1014;51.960;8.542;2022-07-18T04:18:35;21.67;;;20.37;;
2019;SDS011;1014;51.960;8.542;2022-07-18T04:21:02;21.70;;;20.33;;
2019;SDS011;1014;51.960;8.542;2022-07-18T04:23:30;21.67;;;20.47;;
2019;SDS011;1014;51.960;8.542;2022-07-18T04:25:57;21.83;;;20.53;;
2019;SDS011;1014;51.960;8.542;2022-07-18T04:28:24;22.20;;;20.90;;
2019;SDS011;1014;51.960;8.542;2022-07-18T04:30:53;21.70;;;20.43;;
2019;SDS011;1014;51.960;8.542;2022-07-18T04:33:20;21.70;;;20.30;;
2019;SDS011;1014;51.960;8.542;2022-07-18T04:35:48;22.00;;;20.73;;
2019;SDS011;1014;51.960;8.542;2022-07-18T04:38:15;23.00;;;21.50;;
2019;SDS011;1014;51.960;8.542;2022-07-18T04:40:43;21.50;;;20.33;;
2019;SDS011;1014;51.960;8.542;2022-07-18T04:43:10;21.67;;;20.40;;
2019;SDS011;1014;51.960;8.542;2022-07-18T04:45:38;22.57;;;21.27;;
2019;SDS011;1014;51.960;8.542;2022-07-18T04:48:06;26.67;;;24.77;;
2019;SDS011;1014;51.960;8.542;2022-07-18T04:50:34;21.87;;;20.47;;
2019;SDS011;1014;51.960;8.542;2022-07-18T04:53:01;23.20;;;21.73;;
2019;SDS011;1014;51.960;8.542;2022-07-18T04:55:29;23.23;;;21.93;;
2019;SDS011;1014;51.960;8.542;2022-07-18T04:57:56;22.83;;;21.43;;
2019;SDS011;1014;51.960;8.542;2022-07-18T05:00:24;23.10;;;21.73;;
2019;SDS011;1014;51.960;8.542;2022-07-18T05:02:52;23.47;;;22.17;;
2019;SDS011;1014;51.960;8.542;2022-07-18T05:05:23;23.27;;;21.87;;
2019;SDS011;1014;51.960;8.542;2022-07-18T05:07:51;23.53;;;22.20;;
2019;SDS011;1014;51.960;8.542;2022-07-18T05:10:19;23.10;;;21.80;;
2019;SDS011;1014;51.960;8.542;2022-07-18T05:12:49;23.27;;;21.87;;
2019;SDS011;1014;51.960;8.542;2022-07-18T05:15:17;23.50;;;22.07;;
2019;SDS011;1014;51.960;8.542;2022-07-18T05:17:45;23.33;;;21.63;;
2019;SDS011;1014;51.960;8.542;2022-07-18T05:20:13;22.33;;;20.90;;
2019;SDS011;1014;51.960;8.542;2022-07-18T05:22:42;23.30;;;22.10;;
2019;SDS011;1014;51.960;8.542;2022-07-18T05:25:10;21.80;;;20.50;;
2019;SDS011;1014;51.960;8.542;2022-07-18T05:27:38;22.43;;;21.03;;
2019;SDS011;1014;51.960;8.542;2022-07-18T05:30:07;21.37;;;20.17;;
2019;SDS011;1014;51.960;8.542;2022-07-18T05:32:35;21.77;;;20.57;;
2019;SDS011;1014;51.960;8.542;2022-07-18T05:35:02;22.60;;;21.30;;
2019;SDS011;1014;51.960;8.542;2022-07-18T05:37:30;21.97;;;20.77;;
2019;SDS011;1014;51.960;8.542;2022-07-18T05:39:59;21.90;;;20.70;;
2019;SDS011;1014;51.960;8.542;2022-07-18T05:42:27;22.40;;;21.00;;
2019;SDS011;1014;51.960;8.542;2022-07-18T05:44:55;22.20;;;20.67;;
2019;SDS011;1014;51.960;8.542;2022-07-18T05:47:22;22.47;;;21.23;;
2019;SDS011;1014;51.960;8.542;2022-07-18T05:49:49;22.80;;;21.40;;
2019;SDS011;1014;51.960;8.542;2022-07-18T05:52:17;23.27;;;21.97;;
2019;SDS011;1014;51.960;8.542;2022-07-18T05:54:44;23.77;;;22.00;;
2019;SDS011;1014;51.960;8.542;2022-07-18T05:57:13;23.43;;;21.83;;
2019;SDS011;1014;51.960;8.542;2022-07-18T05:59:40;23.10;;;21.80;;
2019;SDS011;1014;51.960;8.542;2022-07-18T06:02:08;21.83;;;20.63;;
2019;SDS011;1014;51.960;8.542;2022-07-18T06:04:35;22.50;;;21.20;;
2019;SDS011;1014;51.960;8.542;2022-07-18T06:07:03;22.37;;;21.07;;
2019;SDS011;1014;51.960;8.542;2022-07-18T06:09:30;22.93;;;21.63;;
2019;SDS011;1014;51.960;8.542;2022-07-18T06:11:58;22.53;;;21.03;;
2019;SDS011;1014;51.960;8.542;2022-07-18T06:14:27;22.27;;;20.97;;
2019;SDS011;1014;51.960;8.542;2022-07-18T06:16:55;22.57;;;21.20;;
2019;SDS011;1014;51.960;8.542;2022-07-18T06:19:22;22.37;;;21.10;;
2019;SDS011;1014;51.960;8.542;2022-07-18T06:21:50;22.23;;;20.93;;
2019;SDS011;1014;51.960;8.542;2022-07-18T06:24:17;22.13;;;20.80;;
2019;SDS011;1014;51.960;8.542;2022-07-18T06:26:45;22.37;;;20.97;;
2019;SDS011;1014;51.960;8.542;2022-07-18T06:29:12;22.57;;;21.07;;
2019;SDS011;1014;51.960;8.542;2022-07-18T06:31:41;22.77;;;21.17;;
2019;SDS011;1014;51.960;8.542;2022-07-18T06:34:08;22.20;;;20.90;;
2019;SDS011;1014;51.960;8.542;2022-07-18T06:36:35;22.10;;;20.80;;
2019;SDS011;1014;51.960;8.542;2022-07-18T06:39:03;22.63;;;21.23;;
2019;SDS011;1014;51.960;8.542;2022-07-18T06:41:35;22.07;;;20.60;;
2019;SDS011;1014;51.960;8.542;2022-07-18T06:44:03;21.47;;;20.27;;
2019;SDS011;1014;51.960;8.542;2022-07-18T06:46:30;22.07;;;20.87;;
2019;SDS011;1014;51.960;8.542;2022-07-18T06:48:59;21.53;;;20.33;;
2019;SDS011;1014;51.960;8.542;2022-07-18T06:51:26;21.77;;;20.50;;
2019;SDS011;1014;51.960;8.542;2022-07-18T06:53:54;21.60;;;20.27;;
2019;SDS011;1014;51.960;8.542;2022-07-18T06:56:21;22.70;;;21.07;;
2019;SDS011;1014;51.960;8.542;2022-07-18T06:58:50;21.23;;;20.13;;
2019;SDS011;1014;51.960;8.542;2022-07-18T07:01:18;23.83;;;22.17;;
2019;SDS011;1014;51.960;8.542;2022-07-18T07:03:46;22.93;;;21.10;;
2019;SDS011;1014;51.960;8.542;2022-07-18T07:06:15;21.97;;;20.67;;
2019;SDS011;1014;51.960;8.542;2022-07-18T07:08:42;23.20;;;21.73;;
2019;SDS011;1014;51.960;8.542;2022-07-18T07:11:14;22.53;;;21.13;;
2019;SDS011;1014;51.960;8.542;2022-07-18T07:13:42;23.70;;;22.00;;
2019;SDS011;1014;51.960;8.542;2022-07-18T07:16:10;21.77;;;20.50;;
2019;SDS011;1014;51.960;8.542;2022-07-18T07:18:37;23.37;;;22.00;;
2019;SDS011;1014;51.960;8.542;2022-07-18T07:21:05;22.50;;;21.20;;
2019;SDS011;1014;51.960;8.542;2022-07-18T07:23:35;21.50;;;20.20;;
2019;SDS011;1014;51.960;8.542;2022-07-18T07:26:02;23.07;;;21.57;;
2019;SDS011;1014;51.960;8.542;2022-07-18T07:28:31;21.33;;;20.03;;
2019;SDS011;1014;51.960;8.542;2022-07-18T07:30:58;23.00;;;21.60;;
2019;SDS011;1014;51.960;8.542;2022-07-18T07:33:25;21.67;;;20.17;;
2019;SDS011;1014;51.960;8.542;2022-07-18T07:35:53;23.57;;;21.77;;
2019;SDS011;1014;51.960;8.542;2022-07-18T07:38:20;21.50;;;20.20;;
2019;SDS011;1014;51.960;8.542;2022-07-18T07:40:54;22.23;;;20.63;;
2019;SDS011;1014;51.960;8.542;2022-07-18T07:43:21;22.63;;;21.03;;
2019;SDS011;1014;51.960;8.542;2022-07-18T07:45:50;22.57;;;20.83;;
2019;SDS011;1014;51.960;8.542;2022-07-18T07:48:18;22.40;;;21.10;;
2019;SDS011;1014;51.960;8.542;2022-07-18T07:50:49;22.90;;;21.57;;
2019;SDS011;1014;51.960;8.542;2022-07-18T07:53:16;23.17;;;21.57;;
2019;SDS011;1014;51.960;8.542;2022-07-18T07:55:44;23.50;;;21.67;;
2019;SDS011;1014;51.960;8.542;2022-07-18T07:58:13;23.57;;;22.27;;
2019;SDS011;1014;51.960;8.542;2022-07-18T08:00:40;24.17;;;22.77;;
2019;SDS011;1014;51.960;8.542;2022-07-18T08:03:08;24.13;;;22.57;;
2019;SDS011;1014;51.960;8.542;2022-07-18T08:05:36;24.17;;;22.60;;
2019;SDS011;1014;51.960;8.542;2022-07-18T08:08:04;24.40;;;23.00;;
2019;SDS011;1014;51.960;8.542;2022-07-18T08:10:32;23.43;;;22.10;;
2019;SDS011;1014;51.960;8.542;2022-07-18T08:13:00;23.70;;;22.20;;
2019;SDS011;1014;51.960;8.542;2022-07-18T08:15:28;23.90;;;22.50;;
2019;SDS011;1014;51.960;8.542;2022-07-18T08:17:56;22.73;;;21.40;;
2019;SDS011;1014;51.960;8.542;2022-07-18T08:20:24;24.00;;;22.60;;
2019;SDS011;1014;51.960;8.542;2022-07-18T08:22:52;22.17;;;20.93;;
2019;SDS011;1014;51.960;8.542;2022-07-18T08:25:19;23.90;;;22.57;;
2019;SDS011;1014;51.960;8.542;2022-07-18T08:27:47;24.00;;;22.50;;
2019;SDS011;1014;51.960;8.542;2022-07-18T08:30:18;23.77;;;22.37;;
2019;SDS011;1014;51.960;8.542;2022-07-18T08:32:47;23.20;;;21.80;;
2019;SDS011;1014;51.960;8.542;2022-07-18T08:35:14;22.83;;;21.27;;
2019;SDS011;1014;51.960;8.542;2022-07-18T08:37:42;23.27;;;21.87;;
2019;SDS011;1014;51.960;8.542;2022-07-18T08:40:09;22.40;;;20.90;;
2019;SDS011;1014;51.960;8.542;2022-07-18T08:42:37;22.70;;;21.30;;
2019;SDS011;1014;51.960;8.542;2022-07-18T08:45:05;22.27;;;20.97;;
2019;SDS011;1014;51.960;8.542;2022-07-18T08:47:33;23.27;;;21.97;;
2019;SDS011;1014;51.960;8.542;2022-07-18T08:50:02;23.77;;;22.10;;
2019;SDS011;1014;51.960;8.542;2022-07-18T08:52:30;23.40;;;21.93;;
2019;SDS011;1014;51.960;8.542;2022-07-18T08:55:01;23.20;;;21.80;;
2019;SDS011;1014;51.960;8.542;2022-07-18T08:57:29;23.97;;;22.50;;
2019;SDS011;1014;51.960;8.542;2022-07-18T08:59:56;23.20;;;21.90;;
2019;SDS011;1014;51.960;8.542;2022-07-18T09:02:24;23.40;;;22.00;;
2019;SDS011;1014;51.960;8.542;2022-07-18T09:04:53;22.67;;;21.37;;
2019;SDS011;1014;51.960;8.542;2022-07-18T09:07:26;23.17;;;21.77;;
2019;SDS011;1014;51.960;8.542;2022-07-18T09:09:54;22.03;;;20.80;;
2019;SDS011;1014;51.960;8.542;2022-07-18T09:12:23;23.93;;;22.37;;
2019;SDS011;1014;51.960;8.542;2022-07-18T09:14:51;24.00;;;22.70;;
2019;SDS011;1014;51.960;8.542;2022-07-18T09:17:19;23.03;;;21.73;;
2019;SDS011;1014;51.960;8.542;2022-07-18T09:19:56;23.90;;;22.60;;
2019;SDS011;1014;51.960;8.542;2022-07-18T09:22:27;23.87;;;22.30;;
2019;SDS011;1014;51.960;8.542;2022-07-18T09:24:56;25.30;;;23.80;;
2019;SDS011;1014;51.960;8.542;2022-07-18T09:27:24;24.80;;;23.40;;
2019;SDS011;1014;51.960;8.542;2022-07-18T09:30:08;23.83;;;22.10;;
2019;SDS011;1014;51.960;8.542;2022-07-18T09:32:36;25.10;;;23.70;;
2019;SDS011;1014;51.960;8.542;2022-07-18T09:35:04;24.53;;;23.17;;
2019;SDS011;1014;51.960;8.542;2022-07-18T09:37:33;24.13;;;22.60;;
2019;SDS011;1014;51.960;8.542;2022-07-18T09:40:13;23.67;;;22.37;;
2019;SDS011;1014;51.960;8.542;2022-07-18T09:42:41;25.03;;;23.60;;
2019;SDS011;1014;51.960;8.542;2022-07-18T09:45:09;25.43;;;23.93;;
2019;SDS011;1014;51.960;8.542;2022-07-18T09:47:48;24.77;;;23.17;;
2019;SDS011;1014;51.960;8.542;2022-07-18T09:50:20;25.13;;;23.63;;
2019;SDS011;1014;51.960;8.542;2022-07-18T09:53:02;24.37;;;23.07;;
2019;SDS011;1014;51.960;8.542;2022-07-18T09:55:30;23.83;;;22.53;;
2019;SDS011;1014;51.960;8.542;2022-07-18T09:57:59;23.83;;;22.43;;
2019;SDS011;1014;51.960;8.542;2022-07-18T10:00:28;25.10;;;23.67;;
2019;SDS011;1014;51.960;8.542;2022-07-18T10:02:56;25.20;;;23.80;;
2019;SDS011;1014;51.960;8.542;2022-07-18T10:05:26;23.93;;;22.63;;
2019;SDS011;1014;51.960;8.542;2022-07-18T10:07:53;26.23;;;24.53;;
2019;SDS011;1014;51.960;8.542;2022-07-18T10:10:22;23.70;;;22.30;;
2019;SDS011;1014;51.960;8.542;2022-07-18T10:12:54;24.57;;;23.20;;
2019;SDS011;1014;51.960;8.542;2022-07-18T10:15:21;24.13;;;22.63;;
2019;SDS011;1014;51.960;8.542;2022-07-18T10:17:49;23.50;;;22.10;;
2019;SDS011;1014;51.960;8.542;2022-07-18T10:20:17;24.53;;;22.93;;
2019;SDS011;1014;51.960;8.542;2022-07-18T10:22:45;24.77;;;23.23;;
2019;SDS011;1014;51.960;8.542;2022-07-18T10:25:13;24.57;;;23.07;;
2019;SDS011;1014;51.960;8.542;2022-07-18T10:27:48;23.67;;;22.37;;
2019;SDS011;1014;51.960;8.542;2022-07-18T10:30:16;24.53;;;23.13;;
2019;SDS011;1014;51.960;8.542;2022-07-18T10:32:44;25.57;;;24.07;;
2019;SDS011;1014;51.960;8.542;2022-07-18T10:35:15;24.87;;;23.40;;
2019;SDS011;1014;51.960;8.542;2022-07-18T10:37:43;25.03;;;23.63;;
2019;SDS011;1014;51.960;8.542;2022-07-18T10:40:23;23.57;;;22.23;;
2019;SDS011;1014;51.960;8.542;2022-07-18T10:45:44;25.57;;;23.87;;
2019;SDS011;1014;51.960;8.542;2022-07-18T10:51:01;25.10;;;23.17;;
2019;SDS011;1014;51.960;8.542;2022-07-18T10:56:11;25.23;;;23.77;;
2019;SDS011;1014;51.960;8.542;2022-07-18T10:58:38;24.87;;;23.57;;
2019;SDS011;1014;51.960;8.542;2022-07-18T11:01:09;25.07;;;23.43;;
2019;SDS011;1014;51.960;8.542;2022-07-18T11:03:41;25.17;;;23.67;;
2019;SDS011;1014;51.960;8.542;2022-07-18T11:06:09;25.03;;;23.37;;
2019;SDS011;1014;51.960;8.542;2022-07-18T11:08:36;24.30;;;22.70;;
2019;SDS011;1014;51.960;8.542;2022-07-18T11:11:10;24.47;;;22.90;;
2019;SDS011;1014;51.960;8.542;2022-07-18T11:13:40;25.67;;;24.07;;
2019;SDS011;1014;51.960;8.542;2022-07-18T11:16:15;25.40;;;24.00;;
2019;SDS011;1014;51.960;8.542;2022-07-18T11:21:29;25.50;;;24.00;;
2019;SDS011;1014;51.960;8.542;2022-07-18T11:23:59;25.93;;;24.33;;
2019;SDS011;1014;51.960;8.542;2022-07-18T11:26:26;25.10;;;23.60;;
2019;SDS011;1014;51.960;8.542;2022-07-18T11:28:56;24.47;;;23.10;;
2019;SDS011;1014;51.960;8.542;2022-07-18T11:31:26;26.40;;;24.70;;
2019;SDS011;1014;51.960;8.542;2022-07-18T11:33:53;25.50;;;24.00;;
2019;SDS011;1014;51.960;8.542;2022-07-18T11:36:22;25.00;;;23.60;;
2019;SDS011;1014;51.960;8.542;2022-07-18T11:38:50;26.40;;;24.90;;
2019;SDS011;1014;51.960;8.542;2022-07-18T11:41:18;24.90;;;23.50;;
2019;SDS011;1014;51.960;8.542;2022-07-18T11:43:47;24.57;;;23.07;;
2019;SDS011;1014;51.960;8.542;2022-07-18T11:46:15;24.10;;;22.70;;
2019;SDS011;1014;51.960;8.542;2022-07-18T11:48:45;25.50;;;23.77;;
2019;SDS011;1014;51.960;8.542;2022-07-18T11:51:13;24.00;;;22.70;;
2019;SDS011;1014;51.960;8.542;2022-07-18T11:53:44;25.00;;;23.27;;
2019;SDS011;1014;51.960;8.542;2022-07-18T11:56:11;25.90;;;24.13;;
2019;SDS011;1014;51.960;8.542;2022-07-18T11:58:39;25.10;;;23.60;;
2019;SDS011;1014;51.960;8.542;2022-07-18T12:01:07;25.47;;;23.90;;
2019;SDS011;1014;51.960;8.542;2022-07-18T12:03:34;24.90;;;23.30;;
2019;SDS011;1014;51.960;8.542;2022-07-18T12:06:10;24.93;;;23.43;;
2019;SDS011;1014;51.960;8.542;2022-07-18T12:08:38;25.10;;;23.60;;
2019;SDS011;1014;51.960;8.542;2022-07-18T12:11:11;24.83;;;23.43;;
2019;SDS011;1014;51.960;8.542;2022-07-18T12:13:40;25.67;;;23.87;;
2019;SDS011;1014;51.960;8.542;2022-07-18T12:16:07;24.40;;;23.00;;
2019;SDS011;1014;51.960;8.542;2022-07-18T12:18:35;24.97;;;23.40;;
2019;SDS011;1014;51.960;8.542;2022-07-18T12:23:46;24.73;;;23.13;;
2019;SDS011;1014;51.960;8.542;2022-07-18T12:26:25;23.60;;;22.20;;
2019;SDS011;1014;51.960;8.542;2022-07-18T12:29:03;23.90;;;22.60;;
2019;SDS011;1014;51.960;8.542;2022-07-18T12:31:37;24.30;;;22.90;;
2019;SDS011;1014;51.960;8.542;2022-07-18T12:34:08;23.53;;;22.10;;
2019;SDS011;1014;51.960;8.542;2022-07-18T12:36:49;23.63;;;22.23;;
2019;SDS011;1014;51.960;8.542;2022-07-18T12:39:25;23.73;;;22.33;;
2019;SDS011;1014;51.960;8.542;2022-07-18T12:41:53;25.33;;;23.60;;
2019;SDS011;1014;51.960;8.542;2022-07-18T12:44:20;24.63;;;23.23;;
2019;SDS011;1014;51.960;8.542;2022-07-18T12:46:47;24.40;;;23.00;;
2019;SDS011;1014;51.960;8.542;2022-07-18T12:49:15;24.83;;;23.43;;
2019;SDS011;1014;51.960;8.542;2022-07-18T12:51:43;24.27;;;22.77;;
2019;SDS011;1014;51.960;8.542;2022-07-18T12:54:10;24.83;;;23.27;;
2019;SDS011;1014;51.960;8.542;2022-07-18T12:56:39;24.63;;;23.23;;
2019;SDS011;1014;51.960;8.542;2022-07-18T12:59:07;24.77;;;23.40;;
2019;SDS011;1014;51.960;8.542;2022-07-18T13:01:34;24.40;;;23.00;;
2019;SDS011;1014;51.960;8.542;2022-07-18T13:04:02;25.13;;;23.73;;
2019;SDS011;1014;51.960;8.542;2022-07-18T13:06:30;25.03;;;23.63;;
2019;SDS011;1014;51.960;8.542;2022-07-18T13:08:57;24.33;;;22.97;;
2019;SDS011;1014;51.960;8.542;2022-07-18T13:11:24;24.80;;;23.40;;
2019;SDS011;1014;51.960;8.542;2022-07-18T13:13:54;24.47;;;23.07;;
2019;SDS011;1014;51.960;8.542;2022-07-18T13:16:21;26.10;;;24.50;;
2019;SDS011;1014;51.960;8.542;2022-07-18T13:18:49;24.70;;;23.30;;
2019;SDS011;1014;51.960;8.542;2022-07-18T13:21:16;25.10;;;23.70;;
2019;SDS011;1014;51.960;8.542;2022-07-18T13:23:43;24.23;;;22.70;;
2019;SDS011;1014;51.960;8.542;2022-07-18T13:26:11;25.80;;;24.27;;
2019;SDS011;1014;51.960;8.542;2022-07-18T13:28:38;24.80;;;23.40;;
2019;SDS011;1014;51.960;8.542;2022-07-18T13:31:07;24.33;;;22.93;;
2019;SDS011;1014;51.960;8.542;2022-07-18T13:33:34;24.80;;;23.40;;
2019;SDS011;1014;51.960;8.542;2022-07-18T13:36:02;24.90;;;23.50;;
2019;SDS011;1014;51.960;8.542;2022-07-18T13:38:29;25.00;;;23.60;;
2019;SDS011;1014;51.960;8.542;2022-07-18T13:40:57;24.20;;;22.80;;
2019;SDS011;1014;51.960;8.542;2022-07-18T13:43:24;24.77;;;23.27;;
2019;SDS011;1014;51.960;8.542;2022-07-18T13:45:51;23.60;;;22.30;;
2019;SDS011;1014;51.960;8.542;2022-07-18T13:48:20;24.50;;;23.10;;
2019;SDS011;1014;51.960;8.542;2022-07-18T13:50:47;24.37;;;22.97;;
2019;SDS011;1014;51.960;8.542;2022-07-18T13:53:14;23.97;;;22.60;;
2019;SDS011;1014;51.960;8.542;2022-07-18T13:55:42;23.90;;;22.50;;
2019;SDS011;1014;51.960;8.542;2022-07-18T13:58:09;24.27;;;22.97;;
2019;SDS011;1014;51.960;8.542;2022-07-18T14:00:36;24.40;;;23.00;;
2019;SDS011;1014;51.960;8.542;2022-07-18T14:03:03;24.50;;;23.00;;
2019;SDS011;1014;51.960;8.542;2022-07-18T14:05:34;24.93;;;23.23;;
2019;SDS011;1014;51.960;8.542;2022-07-18T14:08:02;24.33;;;22.93;;
2019;SDS011;1014;51.960;8.542;2022-07-18T14:10:29;25.00;;;23.40;;
2019;SDS011;1014;51.960;8.542;2022-07-18T14:12:57;23.87;;;22.57;;
2019;SDS011;1014;51.960;8.542;2022-07-18T14:15:24;24.77;;;23.20;;
2019;SDS011;1014;51.960;8.542;2022-07-18T14:17:52;24.23;;;22.63;;
2019;SDS011;1014;51.960;8.542;2022-07-18T14:20:19;23.77;;;22.37;;
2019;SDS011;1014;51.960;8.542;2022-07-18T14:22:49;24.60;;;23.20;;
2019;SDS011;1014;51.960;8.542;2022-07-18T14:25:16;24.40;;;22.90;;
2019;SDS011;1014;51.960;8.542;2022-07-18T14:27:44;24.07;;;22.67;;
2019;SDS011;1014;51.960;8.542;2022-07-18T14:30:12;24.50;;;22.90;;
2019;SDS011;1014;51.960;8.542;2022-07-18T14:32:39;24.53;;;23.13;;
2019;SDS011;1014;51.960;8.542;2022-07-18T14:35:07;24.70;;;23.20;;
2019;SDS011;1014;51.960;8.542;2022-07-18T14:37:35;25.07;;;23.40;;
2019;SDS011;1014;51.960;8.542;2022-07-18T14:40:04;24.57;;;23.07;;
2019;SDS011;1014;51.960;8.542;2022-07-18T14:42:32;24.80;;;23.17;;
2019;SDS011;1014;51.960;8.542;2022-07-18T14:44:59;24.23;;;22.83;;
2019;SDS011;1014;51.960;8.542;2022-07-18T14:47:27;24.27;;;22.77;;
2019;SDS011;1014;51.960;8.542;2022-07-18T14:49:58;24.40;;;22.50;;
2019;SDS011;1014;51.960;8.542;2022-07-18T14:52:25;24.40;;;23.00;;
2019;SDS011;1014;51.960;8.542;2022-07-18T14:54:52;23.57;;;22.20;;
2019;SDS011;1014;51.960;8.542;2022-07-18T14:57:21;24.77;;;23.27;;
2019;SDS011;1014;51.960;8.542;2022-07-18T14:59:49;24.70;;;23.20;;
2019;SDS011;1014;51.960;8.542;2022-07-18T15:02:16;24.90;;;23.40;;
2019;SDS011;1014;51.960;8.542;2022-07-18T15:04:44;24.03;;;22.67;;
2019;SDS011;1014;51.960;8.542;2022-07-18T15:07:11;24.47;;;22.83;;